Asiatic Wave — 9V8790 — position and weather

sailwx.info

Track history (hours):
 
Tides and Currents Weather Stations Pressure Air Temp Water Temp Dewpoint Dewpoint Depression Visibility Wind Speed Wind Dir Waves Ship Positions

Asiatic Wave

Last reported at 2015-Jul-29 06:14 UTC. Time now 2015-Jul-29 06:52 UTC.
Position N 31°04' E 124°50'.

Length 150 m; draft 6.6 m.

Type: Ship (hazmat cat C). MMSI: 564211000.

Date/timePositionNaut miles runAvg speedWind from/ knotsBaromVisibWave heightAir tempDewpointWater temp
2015-Jul-29 06:14N 31°04' E 124°50'1315.8
2015-Jul-29 05:26N 31°04' E 125°05'68415.1
2015-Jul-27 08:13N 34°12' E 138°06'1116.1
2015-Jul-27 07:33N 34°16' E 138°18'6214.8
2015-Jul-27 03:23N 34°52' E 139°19'1315.5
2015-Jul-27 02:33N 34°60' E 139°32'1716.7
2015-Jul-27 01:34N 35°11' E 139°46'1110.9
2015-Jul-27 00:33N 35°22' E 139°42'5 4.6
2015-Jul-26 23:32N 35°27' E 139°41'0 0.0
2015-Jul-26 22:32N 35°27' E 139°41'0 0.0
2015-Jul-26 21:32N 35°27' E 139°41'0 0.0
2015-Jul-26 20:31N 35°27' E 139°41'0 0.0
2015-Jul-26 19:32N 35°27' E 139°41'0 0.0
2015-Jul-26 18:32N 35°27' E 139°41'0 0.0
2015-Jul-26 17:31N 35°27' E 139°41'0 0.0
2015-Jul-26 16:31N 35°27' E 139°41'0 0.0
2015-Jul-26 15:33N 35°27' E 139°41'0 0.0
2015-Jul-26 14:33N 35°27' E 139°41'0 0.0
2015-Jul-26 13:29N 35°27' E 139°41'0 0.0
2015-Jul-26 12:32N 35°27' E 139°41'3 3.0
2015-Jul-26 11:33N 35°26' E 139°44'9 8.6
2015-Jul-26 10:33N 35°32' E 139°51'5 4.3
2015-Jul-26 09:31N 35°36' E 139°48'0 0.0
2015-Jul-26 08:33N 35°36' E 139°48'0 0.0
2015-Jul-26 07:33N 35°36' E 139°48'0 0.0
2015-Jul-26 06:29N 35°36' E 139°48'0 0.0
2015-Jul-26 05:32N 35°36' E 139°48'0 0.0
2015-Jul-26 04:28N 35°36' E 139°48'0 0.0
2015-Jul-26 03:31N 35°36' E 139°48'0 0.0
2015-Jul-26 02:34N 35°36' E 139°48'0 0.0
2015-Jul-26 01:27N 35°36' E 139°48'0 0.0
2015-Jul-26 00:33N 35°36' E 139°48'0 0.0
2015-Jul-25 23:32N 35°36' E 139°48'0 0.4
2015-Jul-25 22:33N 35°36' E 139°47'7 7.3
2015-Jul-25 21:33N 35°30' E 139°53'9 9.5
2015-Jul-25 20:33N 35°23' E 139°45'8 8.2
2015-Jul-25 19:33N 35°15' E 139°47'9 9.0
2015-Jul-25 18:33N 35°06' E 139°46'1110.9
2015-Jul-25 17:33N 34°56' E 139°40'1211.1
2015-Jul-25 16:29N 34°45' E 139°34'2412.1
2015-Jul-25 14:29N 34°33' E 139°09'  
2015-Jul-23 01:32N 31°06' E 122°29'1313.3
2015-Jul-23 00:33N 31°09' E 122°14'1414.0
2015-Jul-22 23:33N 31°15' E 121°59'1514.5
2015-Jul-22 22:33N 31°19' E 121°43'2 2.3
2015-Jul-22 21:32N 31°20' E 121°40'0 0.1
2015-Jul-22 20:33N 31°20' E 121°40'0 0.1
2015-Jul-22 19:32N 31°20' E 121°40'0 0.0
2015-Jul-22 18:28N 31°20' E 121°40'0 0.0
2015-Jul-22 17:34N 31°20' E 121°40'0 0.0
2015-Jul-22 16:31N 31°20' E 121°40'0 0.0
2015-Jul-22 15:34N 31°20' E 121°40'0 0.0
2015-Jul-22 14:33N 31°20' E 121°40'0 0.1
2015-Jul-22 13:31N 31°20' E 121°40'0 0.1
2015-Jul-22 12:32N 31°20' E 121°40'0 0.0
2015-Jul-22 11:32N 31°20' E 121°40'0 0.0
2015-Jul-22 10:33N 31°20' E 121°40'0 0.0
2015-Jul-22 09:31N 31°20' E 121°40'0 0.0
2015-Jul-22 08:33N 31°20' E 121°40'3 2.7
2015-Jul-22 07:34N 31°18' E 121°43'1313.1
2015-Jul-22 06:34N 31°09' E 121°54'1414.4
2015-Jul-22 05:33N 31°03' E 122°09'1211.5
2015-Jul-22 04:31N 31°01' E 122°23'1110.5
2015-Jul-22 03:28N 30°59' E 122°35'  
2015-Jul-19 07:33N 34°07' E 134°56'1616.1
2015-Jul-19 06:34N 34°23' E 135°01'  
Track history (hours):
 
Tides and Currents Weather Stations Pressure Air Temp Water Temp Dewpoint Dewpoint Depression Visibility Wind Speed Wind Dir Waves Ship Positions

Asiatic Wave

Last reported at 2015-Jul-29 06:14 UTC. Time now 2015-Jul-29 06:52 UTC.
Position N 31°04' E 124°50'.

Length 150 m; draft 6.6 m.

Type: Ship (hazmat cat C). MMSI: 564211000.

Date/timePositionNaut miles runAvg speedWind from/ knotsBaromVisibWave heightAir tempDewpointWater temp
2015-Jul-29 06:14N 31°04' E 124°50'1315.8
2015-Jul-29 05:26N 31°04' E 125°05'68415.1
2015-Jul-27 08:13N 34°12' E 138°06'1116.1
2015-Jul-27 07:33N 34°16' E 138°18'6214.8
2015-Jul-27 03:23N 34°52' E 139°19'1315.5
2015-Jul-27 02:33N 34°60' E 139°32'1716.7
2015-Jul-27 01:34N 35°11' E 139°46'1110.9
2015-Jul-27 00:33N 35°22' E 139°42'5 4.6
2015-Jul-26 23:32N 35°27' E 139°41'0 0.0
2015-Jul-26 22:32N 35°27' E 139°41'0 0.0
2015-Jul-26 21:32N 35°27' E 139°41'0 0.0
2015-Jul-26 20:31N 35°27' E 139°41'0 0.0
2015-Jul-26 19:32N 35°27' E 139°41'0 0.0
2015-Jul-26 18:32N 35°27' E 139°41'0 0.0
2015-Jul-26 17:31N 35°27' E 139°41'0 0.0
2015-Jul-26 16:31N 35°27' E 139°41'0 0.0
2015-Jul-26 15:33N 35°27' E 139°41'0 0.0
2015-Jul-26 14:33N 35°27' E 139°41'0 0.0
2015-Jul-26 13:29N 35°27' E 139°41'0 0.0
2015-Jul-26 12:32N 35°27' E 139°41'3 3.0
2015-Jul-26 11:33N 35°26' E 139°44'9 8.6
2015-Jul-26 10:33N 35°32' E 139°51'5 4.3
2015-Jul-26 09:31N 35°36' E 139°48'0 0.0
2015-Jul-26 08:33N 35°36' E 139°48'0 0.0
2015-Jul-26 07:33N 35°36' E 139°48'0 0.0
2015-Jul-26 06:29N 35°36' E 139°48'0 0.0
2015-Jul-26 05:32N 35°36' E 139°48'0 0.0
2015-Jul-26 04:28N 35°36' E 139°48'0 0.0
2015-Jul-26 03:31N 35°36' E 139°48'0 0.0
2015-Jul-26 02:34N 35°36' E 139°48'0 0.0
2015-Jul-26 01:27N 35°36' E 139°48'0 0.0
2015-Jul-26 00:33N 35°36' E 139°48'0 0.0
2015-Jul-25 23:32N 35°36' E 139°48'0 0.4
2015-Jul-25 22:33N 35°36' E 139°47'7 7.3
2015-Jul-25 21:33N 35°30' E 139°53'9 9.5
2015-Jul-25 20:33N 35°23' E 139°45'8 8.2
2015-Jul-25 19:33N 35°15' E 139°47'9 9.0
2015-Jul-25 18:33N 35°06' E 139°46'1110.9
2015-Jul-25 17:33N 34°56' E 139°40'1211.1
2015-Jul-25 16:29N 34°45' E 139°34'2412.1
2015-Jul-25 14:29N 34°33' E 139°09'  
2015-Jul-23 01:32N 31°06' E 122°29'1313.3
2015-Jul-23 00:33N 31°09' E 122°14'1414.0
2015-Jul-22 23:33N 31°15' E 121°59'1514.5
2015-Jul-22 22:33N 31°19' E 121°43'2 2.3
2015-Jul-22 21:32N 31°20' E 121°40'0 0.1
2015-Jul-22 20:33N 31°20' E 121°40'0 0.1
2015-Jul-22 19:32N 31°20' E 121°40'0 0.0
2015-Jul-22 18:28N 31°20' E 121°40'0 0.0
2015-Jul-22 17:34N 31°20' E 121°40'0 0.0
2015-Jul-22 16:31N 31°20' E 121°40'0 0.0
2015-Jul-22 15:34N 31°20' E 121°40'0 0.0
2015-Jul-22 14:33N 31°20' E 121°40'0 0.1
2015-Jul-22 13:31N 31°20' E 121°40'0 0.1
2015-Jul-22 12:32N 31°20' E 121°40'0 0.0
2015-Jul-22 11:32N 31°20' E 121°40'0 0.0
2015-Jul-22 10:33N 31°20' E 121°40'0 0.0
2015-Jul-22 09:31N 31°20' E 121°40'0 0.0
2015-Jul-22 08:33N 31°20' E 121°40'3 2.7
2015-Jul-22 07:34N 31°18' E 121°43'1313.1
2015-Jul-22 06:34N 31°09' E 121°54'1414.4
2015-Jul-22 05:33N 31°03' E 122°09'1211.5
2015-Jul-22 04:31N 31°01' E 122°23'1110.5
2015-Jul-22 03:28N 30°59' E 122°35'  
2015-Jul-19 07:33N 34°07' E 134°56'1616.1
2015-Jul-19 06:34N 34°23' E 135°01'  

Dump ship's entire track history